Tian Fu — VRPA3 — position and weather

sailwx.info

Track history (hours):
 
Tides and Currents Weather Stations Pressure Air Temp Water Temp Dewpoint Dewpoint Depression Visibility Wind Speed Wind Dir Waves Ship Positions

Tian Fu

Last reported at 2018-Apr-19 00:43 UTC. Time now 2018-Apr-19 23:25 UTC.
Position N 39°34' W 009°53'.

Length 190 m; draft 9.4 m.

Type: Cargo ship. MMSI: 477588500.

Date/timePositionNaut miles runAvg speedWind from/ knotsBaromVisibWave heightAir tempDewpointWater temp
2018-Apr-19 00:43N 39°34' W 009°53'313.5
2018-Apr-19 00:31N 39°32' W 009°53'713.3
2018-Apr-19 00:00N 39°25' W 009°53'713.2
2018-Apr-18 23:30N 39°18' W 009°53'713.2
2018-Apr-18 23:00N 39°12' W 009°53'713.0
2018-Apr-18 22:30N 39°05' W 009°53'613.0
2018-Apr-18 22:01N 38°59' W 009°53'612.8
2018-Apr-18 21:30N 38°52' W 009°52'612.5
2018-Apr-18 21:00N 38°46' W 009°51'612.9
2018-Apr-18 20:30N 38°40' W 009°50'613.0
2018-Apr-18 20:00N 38°33' W 009°48'612.9
2018-Apr-18 19:30N 38°27' W 009°46'713.2
2018-Apr-18 19:01N 38°21' W 009°44'713.1
2018-Apr-18 18:31N 38°14' W 009°42'713.0
2018-Apr-18 18:00N 38°08' W 009°41'612.9
2018-Apr-18 17:31N 38°02' W 009°39'612.7
2018-Apr-18 17:00N 37°55' W 009°37'612.9
2018-Apr-18 16:30N 37°49' W 009°35'612.9
2018-Apr-18 16:00N 37°43' W 009°33'612.8
2018-Apr-18 15:31N 37°37' W 009°32'713.0
2018-Apr-18 15:00N 37°30' W 009°29'612.8
2018-Apr-18 14:30N 37°24' W 009°28'4711.5
2018-Apr-18 10:23N 36°42' W 009°01'512.3
2018-Apr-18 10:00N 36°40' W 008°55'712.1
2018-Apr-18 09:28N 36°38' W 008°47'1012.3
2018-Apr-18 08:39N 36°35' W 008°35'212.5
2018-Apr-18 08:30N 36°35' W 008°33'14413.3
2018-Apr-17 21:42N 35°59' W 005°41'313.1
2018-Apr-17 21:30N 35°58' W 005°38'612.8
2018-Apr-17 21:00N 35°60' W 005°30'612.3
2018-Apr-17 20:30N 36°01' W 005°23'612.4
2018-Apr-17 20:00N 36°03' W 005°15'812.7
2018-Apr-17 19:23N 36°05' W 005°06'  
2018-Apr-14 20:12N 36°48' E 014°02'315.5
2018-Apr-14 20:00N 36°46' E 014°05'1213.9
2018-Apr-14 19:09N 36°41' E 014°18'416.3
2018-Apr-14 18:55N 36°39' E 014°22'613.7
2018-Apr-14 18:30N 36°36' E 014°28'713.6
2018-Apr-14 17:58N 36°35' E 014°37'7513.1
2018-Apr-14 12:15N 37°15' E 015°56'414.7
2018-Apr-14 12:00N 37°18' E 015°59'1314.6
2018-Apr-14 11:08N 37°28' E 016°09'214.7
2018-Apr-14 11:00N 37°29' E 016°11'814.5
2018-Apr-14 10:27N 37°35' E 016°17'14514.9
2018-Apr-14 00:42N 39°28' E 018°14'  
Track history (hours):
 
Tides and Currents Weather Stations Pressure Air Temp Water Temp Dewpoint Dewpoint Depression Visibility Wind Speed Wind Dir Waves Ship Positions

Tian Fu

Last reported at 2018-Apr-19 00:43 UTC. Time now 2018-Apr-19 23:25 UTC.
Position N 39°34' W 009°53'.

Length 190 m; draft 9.4 m.

Type: Cargo ship. MMSI: 477588500.

Date/timePositionNaut miles runAvg speedWind from/ knotsBaromVisibWave heightAir tempDewpointWater temp
2018-Apr-19 00:43N 39°34' W 009°53'313.5
2018-Apr-19 00:31N 39°32' W 009°53'713.3
2018-Apr-19 00:00N 39°25' W 009°53'713.2
2018-Apr-18 23:30N 39°18' W 009°53'713.2
2018-Apr-18 23:00N 39°12' W 009°53'713.0
2018-Apr-18 22:30N 39°05' W 009°53'613.0
2018-Apr-18 22:01N 38°59' W 009°53'612.8
2018-Apr-18 21:30N 38°52' W 009°52'612.5
2018-Apr-18 21:00N 38°46' W 009°51'612.9
2018-Apr-18 20:30N 38°40' W 009°50'613.0
2018-Apr-18 20:00N 38°33' W 009°48'612.9
2018-Apr-18 19:30N 38°27' W 009°46'713.2
2018-Apr-18 19:01N 38°21' W 009°44'713.1
2018-Apr-18 18:31N 38°14' W 009°42'713.0
2018-Apr-18 18:00N 38°08' W 009°41'612.9
2018-Apr-18 17:31N 38°02' W 009°39'612.7
2018-Apr-18 17:00N 37°55' W 009°37'612.9
2018-Apr-18 16:30N 37°49' W 009°35'612.9
2018-Apr-18 16:00N 37°43' W 009°33'612.8
2018-Apr-18 15:31N 37°37' W 009°32'713.0
2018-Apr-18 15:00N 37°30' W 009°29'612.8
2018-Apr-18 14:30N 37°24' W 009°28'4711.5
2018-Apr-18 10:23N 36°42' W 009°01'512.3
2018-Apr-18 10:00N 36°40' W 008°55'712.1
2018-Apr-18 09:28N 36°38' W 008°47'1012.3
2018-Apr-18 08:39N 36°35' W 008°35'212.5
2018-Apr-18 08:30N 36°35' W 008°33'14413.3
2018-Apr-17 21:42N 35°59' W 005°41'313.1
2018-Apr-17 21:30N 35°58' W 005°38'612.8
2018-Apr-17 21:00N 35°60' W 005°30'612.3
2018-Apr-17 20:30N 36°01' W 005°23'612.4
2018-Apr-17 20:00N 36°03' W 005°15'812.7
2018-Apr-17 19:23N 36°05' W 005°06'  
2018-Apr-14 20:12N 36°48' E 014°02'315.5
2018-Apr-14 20:00N 36°46' E 014°05'1213.9
2018-Apr-14 19:09N 36°41' E 014°18'416.3
2018-Apr-14 18:55N 36°39' E 014°22'613.7
2018-Apr-14 18:30N 36°36' E 014°28'713.6
2018-Apr-14 17:58N 36°35' E 014°37'7513.1
2018-Apr-14 12:15N 37°15' E 015°56'414.7
2018-Apr-14 12:00N 37°18' E 015°59'1314.6
2018-Apr-14 11:08N 37°28' E 016°09'214.7
2018-Apr-14 11:00N 37°29' E 016°11'814.5
2018-Apr-14 10:27N 37°35' E 016°17'14514.9
2018-Apr-14 00:42N 39°28' E 018°14'  

Dump ship's entire track history